sensor_id;sensor_type;location;lat;lon;timestamp;P1;durP1;ratioP1;P2;durP2;ratioP2
11139;SDS011;5624;49.388;11.350;2023-12-20T00:02:13;8.73;;;7.10;;
11139;SDS011;5624;49.388;11.350;2023-12-20T00:04:39;9.37;;;7.20;;
11139;SDS011;5624;49.388;11.350;2023-12-20T00:07:04;8.50;;;7.03;;
11139;SDS011;5624;49.388;11.350;2023-12-20T00:09:30;8.37;;;7.37;;
11139;SDS011;5624;49.388;11.350;2023-12-20T00:11:55;9.57;;;7.47;;
11139;SDS011;5624;49.388;11.350;2023-12-20T00:14:21;7.80;;;7.00;;
11139;SDS011;5624;49.388;11.350;2023-12-20T00:16:47;8.40;;;7.23;;
11139;SDS011;5624;49.388;11.350;2023-12-20T00:19:12;9.23;;;7.27;;
11139;SDS011;5624;49.388;11.350;2023-12-20T00:21:38;9.23;;;7.63;;
11139;SDS011;5624;49.388;11.350;2023-12-20T00:24:04;8.80;;;7.43;;
11139;SDS011;5624;49.388;11.350;2023-12-20T00:26:29;9.80;;;7.50;;
11139;SDS011;5624;49.388;11.350;2023-12-20T00:28:55;10.97;;;8.00;;
11139;SDS011;5624;49.388;11.350;2023-12-20T00:31:21;12.17;;;7.80;;
11139;SDS011;5624;49.388;11.350;2023-12-20T00:33:46;8.90;;;7.17;;
11139;SDS011;5624;49.388;11.350;2023-12-20T00:36:12;9.70;;;8.33;;
11139;SDS011;5624;49.388;11.350;2023-12-20T00:38:37;9.73;;;7.53;;
11139;SDS011;5624;49.388;11.350;2023-12-20T00:41:03;9.40;;;8.40;;
11139;SDS011;5624;49.388;11.350;2023-12-20T00:43:28;10.63;;;8.60;;
11139;SDS011;5624;49.388;11.350;2023-12-20T00:45:54;9.70;;;8.17;;
11139;SDS011;5624;49.388;11.350;2023-12-20T00:48:20;9.80;;;8.43;;
11139;SDS011;5624;49.388;11.350;2023-12-20T00:50:46;10.80;;;9.47;;
11139;SDS011;5624;49.388;11.350;2023-12-20T00:53:11;9.63;;;8.63;;
11139;SDS011;5624;49.388;11.350;2023-12-20T00:55:37;10.20;;;9.20;;
11139;SDS011;5624;49.388;11.350;2023-12-20T00:58:02;11.63;;;9.17;;
11139;SDS011;5624;49.388;11.350;2023-12-20T01:00:28;11.87;;;9.37;;
11139;SDS011;5624;49.388;11.350;2023-12-20T01:02:54;11.83;;;10.00;;
11139;SDS011;5624;49.388;11.350;2023-12-20T01:05:19;10.13;;;9.13;;
11139;SDS011;5624;49.388;11.350;2023-12-20T01:07:48;12.87;;;9.60;;
11139;SDS011;5624;49.388;11.350;2023-12-20T01:10:13;14.40;;;9.60;;
11139;SDS011;5624;49.388;11.350;2023-12-20T01:12:39;11.70;;;9.70;;
11139;SDS011;5624;49.388;11.350;2023-12-20T01:15:05;12.90;;;10.13;;
11139;SDS011;5624;49.388;11.350;2023-12-20T01:17:30;12.07;;;9.33;;
11139;SDS011;5624;49.388;11.350;2023-12-20T01:19:56;11.37;;;9.63;;
11139;SDS011;5624;49.388;11.350;2023-12-20T01:22:22;11.00;;;9.90;;
11139;SDS011;5624;49.388;11.350;2023-12-20T01:24:47;11.40;;;10.20;;
11139;SDS011;5624;49.388;11.350;2023-12-20T01:27:13;11.20;;;10.00;;
11139;SDS011;5624;49.388;11.350;2023-12-20T01:29:38;12.37;;;10.30;;
11139;SDS011;5624;49.388;11.350;2023-12-20T01:32:04;12.10;;;10.23;;
11139;SDS011;5624;49.388;11.350;2023-12-20T01:34:30;12.63;;;10.33;;
11139;SDS011;5624;49.388;11.350;2023-12-20T01:36:55;14.80;;;10.40;;
11139;SDS011;5624;49.388;11.350;2023-12-20T01:39:21;11.73;;;9.73;;
11139;SDS011;5624;49.388;11.350;2023-12-20T01:41:46;11.17;;;9.63;;
11139;SDS011;5624;49.388;11.350;2023-12-20T01:44:12;10.63;;;9.53;;
11139;SDS011;5624;49.388;11.350;2023-12-20T01:46:37;11.77;;;9.57;;
11139;SDS011;5624;49.388;11.350;2023-12-20T01:49:03;11.60;;;10.33;;
11139;SDS011;5624;49.388;11.350;2023-12-20T01:51:29;10.90;;;9.53;;
11139;SDS011;5624;49.388;11.350;2023-12-20T01:53:55;12.93;;;9.67;;
11139;SDS011;5624;49.388;11.350;2023-12-20T01:56:22;12.00;;;10.00;;
11139;SDS011;5624;49.388;11.350;2023-12-20T01:58:49;13.93;;;9.83;;
11139;SDS011;5624;49.388;11.350;2023-12-20T02:01:14;9.97;;;8.30;;
11139;SDS011;5624;49.388;11.350;2023-12-20T02:03:41;12.87;;;9.30;;
11139;SDS011;5624;49.388;11.350;2023-12-20T02:06:07;11.97;;;8.77;;
11139;SDS011;5624;49.388;11.350;2023-12-20T02:08:34;10.03;;;8.77;;
11139;SDS011;5624;49.388;11.350;2023-12-20T02:11:00;12.43;;;8.60;;
11139;SDS011;5624;49.388;11.350;2023-12-20T02:13:26;10.17;;;8.70;;
11139;SDS011;5624;49.388;11.350;2023-12-20T02:15:52;10.43;;;9.37;;
11139;SDS011;5624;49.388;11.350;2023-12-20T02:18:19;12.17;;;8.50;;
11139;SDS011;5624;49.388;11.350;2023-12-20T02:20:44;9.30;;;8.27;;
11139;SDS011;5624;49.388;11.350;2023-12-20T02:23:10;10.60;;;8.50;;
11139;SDS011;5624;49.388;11.350;2023-12-20T02:25:35;11.57;;;8.40;;
11139;SDS011;5624;49.388;11.350;2023-12-20T02:28:02;8.80;;;7.63;;
11139;SDS011;5624;49.388;11.350;2023-12-20T02:30:28;9.03;;;7.50;;
11139;SDS011;5624;49.388;11.350;2023-12-20T02:32:54;8.47;;;7.60;;
11139;SDS011;5624;49.388;11.350;2023-12-20T02:35:20;8.27;;;6.90;;
11139;SDS011;5624;49.388;11.350;2023-12-20T02:37:45;7.13;;;6.33;;
11139;SDS011;5624;49.388;11.350;2023-12-20T02:40:11;7.80;;;6.90;;
11139;SDS011;5624;49.388;11.350;2023-12-20T02:42:36;6.70;;;6.00;;
11139;SDS011;5624;49.388;11.350;2023-12-20T02:45:02;5.67;;;5.10;;
11139;SDS011;5624;49.388;11.350;2023-12-20T02:47:28;5.77;;;5.17;;
11139;SDS011;5624;49.388;11.350;2023-12-20T02:49:54;6.67;;;5.43;;
11139;SDS011;5624;49.388;11.350;2023-12-20T02:52:20;5.93;;;4.70;;
11139;SDS011;5624;49.388;11.350;2023-12-20T02:54:47;4.03;;;3.47;;
11139;SDS011;5624;49.388;11.350;2023-12-20T02:57:13;5.83;;;3.00;;
11139;SDS011;5624;49.388;11.350;2023-12-20T02:59:38;3.73;;;2.10;;
11139;SDS011;5624;49.388;11.350;2023-12-20T03:02:04;1.60;;;1.50;;
11139;SDS011;5624;49.388;11.350;2023-12-20T03:04:29;1.87;;;1.77;;
11139;SDS011;5624;49.388;11.350;2023-12-20T03:06:55;1.50;;;1.40;;
11139;SDS011;5624;49.388;11.350;2023-12-20T03:09:20;2.00;;;1.80;;
11139;SDS011;5624;49.388;11.350;2023-12-20T03:11:45;2.20;;;1.90;;
11139;SDS011;5624;49.388;11.350;2023-12-20T03:14:11;1.77;;;1.60;;
11139;SDS011;5624;49.388;11.350;2023-12-20T03:16:36;2.97;;;1.50;;
11139;SDS011;5624;49.388;11.350;2023-12-20T03:19:02;1.60;;;1.30;;
11139;SDS011;5624;49.388;11.350;2023-12-20T03:21:27;1.40;;;1.30;;
11139;SDS011;5624;49.388;11.350;2023-12-20T03:23:53;1.30;;;1.20;;
11139;SDS011;5624;49.388;11.350;2023-12-20T03:26:18;1.20;;;1.07;;
11139;SDS011;5624;49.388;11.350;2023-12-20T03:28:44;0.90;;;0.90;;
11139;SDS011;5624;49.388;11.350;2023-12-20T03:31:09;0.93;;;0.93;;
11139;SDS011;5624;49.388;11.350;2023-12-20T03:33:35;0.90;;;0.90;;
11139;SDS011;5624;49.388;11.350;2023-12-20T03:36:01;1.07;;;0.97;;
11139;SDS011;5624;49.388;11.350;2023-12-20T03:38:26;2.47;;;1.00;;
11139;SDS011;5624;49.388;11.350;2023-12-20T03:40:52;1.10;;;1.00;;
11139;SDS011;5624;49.388;11.350;2023-12-20T03:43:17;1.00;;;1.00;;
11139;SDS011;5624;49.388;11.350;2023-12-20T03:45:43;0.80;;;0.80;;
11139;SDS011;5624;49.388;11.350;2023-12-20T03:48:09;0.97;;;0.97;;
11139;SDS011;5624;49.388;11.350;2023-12-20T03:50:34;1.17;;;1.00;;
11139;SDS011;5624;49.388;11.350;2023-12-20T03:53:00;1.27;;;1.17;;
11139;SDS011;5624;49.388;11.350;2023-12-20T03:55:26;1.20;;;1.20;;
11139;SDS011;5624;49.388;11.350;2023-12-20T03:57:51;3.60;;;1.30;;
11139;SDS011;5624;49.388;11.350;2023-12-20T04:00:17;1.20;;;1.10;;
11139;SDS011;5624;49.388;11.350;2023-12-20T04:02:43;1.37;;;1.27;;
11139;SDS011;5624;49.388;11.350;2023-12-20T04:05:09;1.43;;;1.33;;
11139;SDS011;5624;49.388;11.350;2023-12-20T04:07:35;2.43;;;1.57;;
11139;SDS011;5624;49.388;11.350;2023-12-20T04:10:01;1.43;;;1.33;;
11139;SDS011;5624;49.388;11.350;2023-12-20T04:12:28;1.33;;;1.27;;
11139;SDS011;5624;49.388;11.350;2023-12-20T04:14:53;1.50;;;1.30;;
11139;SDS011;5624;49.388;11.350;2023-12-20T04:17:19;1.50;;;1.40;;
11139;SDS011;5624;49.388;11.350;2023-12-20T04:19:47;1.20;;;1.20;;
11139;SDS011;5624;49.388;11.350;2023-12-20T04:22:13;1.50;;;1.40;;
11139;SDS011;5624;49.388;11.350;2023-12-20T04:24:39;1.80;;;1.67;;
11139;SDS011;5624;49.388;11.350;2023-12-20T04:27:04;1.50;;;1.40;;
11139;SDS011;5624;49.388;11.350;2023-12-20T04:29:30;1.80;;;1.70;;
11139;SDS011;5624;49.388;11.350;2023-12-20T04:31:55;1.63;;;1.43;;
11139;SDS011;5624;49.388;11.350;2023-12-20T04:34:21;2.37;;;1.70;;
11139;SDS011;5624;49.388;11.350;2023-12-20T04:36:47;1.90;;;1.70;;
11139;SDS011;5624;49.388;11.350;2023-12-20T04:39:13;1.63;;;1.53;;
11139;SDS011;5624;49.388;11.350;2023-12-20T04:41:40;1.97;;;1.87;;
11139;SDS011;5624;49.388;11.350;2023-12-20T04:44:05;1.60;;;1.50;;
11139;SDS011;5624;49.388;11.350;2023-12-20T04:46:31;1.77;;;1.67;;
11139;SDS011;5624;49.388;11.350;2023-12-20T04:48:56;2.13;;;1.90;;
11139;SDS011;5624;49.388;11.350;2023-12-20T04:51:22;2.30;;;1.90;;
11139;SDS011;5624;49.388;11.350;2023-12-20T04:53:48;2.07;;;1.90;;
11139;SDS011;5624;49.388;11.350;2023-12-20T04:56:13;2.13;;;1.93;;
11139;SDS011;5624;49.388;11.350;2023-12-20T04:58:39;2.33;;;2.13;;
11139;SDS011;5624;49.388;11.350;2023-12-20T05:01:05;2.10;;;2.00;;
11139;SDS011;5624;49.388;11.350;2023-12-20T05:03:32;1.97;;;1.87;;
11139;SDS011;5624;49.388;11.350;2023-12-20T05:05:57;2.30;;;2.10;;
11139;SDS011;5624;49.388;11.350;2023-12-20T05:08:23;2.27;;;2.00;;
11139;SDS011;5624;49.388;11.350;2023-12-20T05:10:49;2.50;;;2.30;;
11139;SDS011;5624;49.388;11.350;2023-12-20T05:13:16;2.40;;;2.10;;
11139;SDS011;5624;49.388;11.350;2023-12-20T05:15:41;4.00;;;2.40;;
11139;SDS011;5624;49.388;11.350;2023-12-20T05:18:07;2.50;;;2.30;;
11139;SDS011;5624;49.388;11.350;2023-12-20T05:20:32;2.20;;;2.10;;
11139;SDS011;5624;49.388;11.350;2023-12-20T05:22:58;3.20;;;2.73;;
11139;SDS011;5624;49.388;11.350;2023-12-20T05:25:23;3.13;;;2.60;;
11139;SDS011;5624;49.388;11.350;2023-12-20T05:27:49;2.67;;;2.47;;
11139;SDS011;5624;49.388;11.350;2023-12-20T05:30:15;2.57;;;2.37;;
11139;SDS011;5624;49.388;11.350;2023-12-20T05:32:40;2.80;;;2.60;;
11139;SDS011;5624;49.388;11.350;2023-12-20T05:35:06;3.20;;;2.50;;
11139;SDS011;5624;49.388;11.350;2023-12-20T05:37:32;3.10;;;2.80;;
11139;SDS011;5624;49.388;11.350;2023-12-20T05:39:57;2.90;;;2.60;;
11139;SDS011;5624;49.388;11.350;2023-12-20T05:42:23;2.80;;;2.50;;
11139;SDS011;5624;49.388;11.350;2023-12-20T05:44:48;3.40;;;2.43;;
11139;SDS011;5624;49.388;11.350;2023-12-20T05:47:14;2.53;;;2.33;;
11139;SDS011;5624;49.388;11.350;2023-12-20T05:49:39;3.30;;;2.43;;
11139;SDS011;5624;49.388;11.350;2023-12-20T05:52:05;2.30;;;2.10;;
11139;SDS011;5624;49.388;11.350;2023-12-20T05:54:31;3.90;;;2.70;;
11139;SDS011;5624;49.388;11.350;2023-12-20T05:56:56;3.00;;;2.40;;
11139;SDS011;5624;49.388;11.350;2023-12-20T05:59:22;3.33;;;2.60;;
11139;SDS011;5624;49.388;11.350;2023-12-20T06:01:47;2.97;;;2.67;;
11139;SDS011;5624;49.388;11.350;2023-12-20T06:04:13;2.73;;;2.53;;
11139;SDS011;5624;49.388;11.350;2023-12-20T06:06:42;2.93;;;2.73;;
11139;SDS011;5624;49.388;11.350;2023-12-20T06:09:07;2.60;;;2.40;;
11139;SDS011;5624;49.388;11.350;2023-12-20T06:11:33;5.57;;;4.40;;
11139;SDS011;5624;49.388;11.350;2023-12-20T06:13:59;3.53;;;3.07;;
11139;SDS011;5624;49.388;11.350;2023-12-20T06:16:24;3.43;;;3.13;;
11139;SDS011;5624;49.388;11.350;2023-12-20T06:18:50;2.60;;;2.40;;
11139;SDS011;5624;49.388;11.350;2023-12-20T06:21:15;2.87;;;2.57;;
11139;SDS011;5624;49.388;11.350;2023-12-20T06:23:41;2.93;;;2.70;;
11139;SDS011;5624;49.388;11.350;2023-12-20T06:26:07;3.47;;;2.83;;
11139;SDS011;5624;49.388;11.350;2023-12-20T06:28:32;4.03;;;2.80;;
11139;SDS011;5624;49.388;11.350;2023-12-20T06:30:58;2.60;;;2.40;;
11139;SDS011;5624;49.388;11.350;2023-12-20T06:33:25;2.80;;;2.60;;
11139;SDS011;5624;49.388;11.350;2023-12-20T06:35:51;3.20;;;2.90;;
11139;SDS011;5624;49.388;11.350;2023-12-20T06:38:17;3.30;;;3.00;;
11139;SDS011;5624;49.388;11.350;2023-12-20T06:40:43;2.83;;;2.57;;
11139;SDS011;5624;49.388;11.350;2023-12-20T06:43:09;3.20;;;2.90;;
11139;SDS011;5624;49.388;11.350;2023-12-20T06:45:34;3.27;;;2.97;;
11139;SDS011;5624;49.388;11.350;2023-12-20T06:48:00;2.90;;;2.60;;
11139;SDS011;5624;49.388;11.350;2023-12-20T06:50:26;3.37;;;3.07;;
11139;SDS011;5624;49.388;11.350;2023-12-20T06:52:51;3.00;;;2.80;;
11139;SDS011;5624;49.388;11.350;2023-12-20T06:55:17;3.23;;;2.93;;
11139;SDS011;5624;49.388;11.350;2023-12-20T06:57:43;2.90;;;2.67;;
11139;SDS011;5624;49.388;11.350;2023-12-20T07:00:10;2.93;;;2.73;;
11139;SDS011;5624;49.388;11.350;2023-12-20T07:02:36;3.07;;;2.77;;
11139;SDS011;5624;49.388;11.350;2023-12-20T07:05:02;3.07;;;2.87;;
11139;SDS011;5624;49.388;11.350;2023-12-20T07:07:27;4.20;;;3.40;;
11139;SDS011;5624;49.388;11.350;2023-12-20T07:09:53;3.30;;;3.00;;
11139;SDS011;5624;49.388;11.350;2023-12-20T07:12:19;3.70;;;3.40;;
11139;SDS011;5624;49.388;11.350;2023-12-20T07:14:45;3.40;;;3.10;;
11139;SDS011;5624;49.388;11.350;2023-12-20T07:17:11;3.80;;;3.50;;
11139;SDS011;5624;49.388;11.350;2023-12-20T07:19:38;3.83;;;3.50;;
11139;SDS011;5624;49.388;11.350;2023-12-20T07:22:05;4.40;;;4.00;;
11139;SDS011;5624;49.388;11.350;2023-12-20T07:24:31;4.70;;;3.73;;
11139;SDS011;5624;49.388;11.350;2023-12-20T07:26:56;5.07;;;4.57;;
11139;SDS011;5624;49.388;11.350;2023-12-20T07:29:22;4.30;;;3.90;;
11139;SDS011;5624;49.388;11.350;2023-12-20T07:31:47;3.83;;;3.53;;
11139;SDS011;5624;49.388;11.350;2023-12-20T07:34:13;4.73;;;4.33;;
11139;SDS011;5624;49.388;11.350;2023-12-20T07:36:38;4.40;;;4.00;;
11139;SDS011;5624;49.388;11.350;2023-12-20T07:39:04;4.93;;;4.33;;
11139;SDS011;5624;49.388;11.350;2023-12-20T07:41:29;5.17;;;4.67;;
11139;SDS011;5624;49.388;11.350;2023-12-20T07:43:55;5.03;;;4.60;;
11139;SDS011;5624;49.388;11.350;2023-12-20T07:46:21;5.67;;;5.17;;
11139;SDS011;5624;49.388;11.350;2023-12-20T07:48:50;5.70;;;5.20;;
11139;SDS011;5624;49.388;11.350;2023-12-20T07:51:15;5.90;;;5.40;;
11139;SDS011;5624;49.388;11.350;2023-12-20T07:53:41;5.97;;;5.47;;
11139;SDS011;5624;49.388;11.350;2023-12-20T07:56:16;5.83;;;5.33;;
11139;SDS011;5624;49.388;11.350;2023-12-20T07:58:43;5.90;;;5.37;;
11139;SDS011;5624;49.388;11.350;2023-12-20T08:01:10;5.63;;;5.13;;
11139;SDS011;5624;49.388;11.350;2023-12-20T08:03:35;5.50;;;5.00;;
11139;SDS011;5624;49.388;11.350;2023-12-20T08:06:01;5.10;;;4.70;;
11139;SDS011;5624;49.388;11.350;2023-12-20T08:08:27;5.27;;;4.77;;
11139;SDS011;5624;49.388;11.350;2023-12-20T08:10:53;6.73;;;5.40;;
11139;SDS011;5624;49.388;11.350;2023-12-20T08:13:18;5.37;;;4.80;;
11139;SDS011;5624;49.388;11.350;2023-12-20T08:15:44;5.63;;;5.13;;
11139;SDS011;5624;49.388;11.350;2023-12-20T08:18:09;6.00;;;5.43;;
11139;SDS011;5624;49.388;11.350;2023-12-20T08:20:35;5.83;;;5.33;;
11139;SDS011;5624;49.388;11.350;2023-12-20T08:23:00;6.00;;;5.50;;
11139;SDS011;5624;49.388;11.350;2023-12-20T08:25:26;5.90;;;5.40;;
11139;SDS011;5624;49.388;11.350;2023-12-20T08:27:52;6.23;;;5.63;;
11139;SDS011;5624;49.388;11.350;2023-12-20T08:30:18;6.30;;;5.70;;
11139;SDS011;5624;49.388;11.350;2023-12-20T08:32:47;6.27;;;5.67;;
11139;SDS011;5624;49.388;11.350;2023-12-20T08:35:15;5.40;;;4.90;;
11139;SDS011;5624;49.388;11.350;2023-12-20T08:37:40;5.90;;;5.40;;
11139;SDS011;5624;49.388;11.350;2023-12-20T08:40:06;5.77;;;5.27;;
11139;SDS011;5624;49.388;11.350;2023-12-20T08:42:32;5.90;;;5.40;;
11139;SDS011;5624;49.388;11.350;2023-12-20T08:44:58;5.80;;;5.27;;
11139;SDS011;5624;49.388;11.350;2023-12-20T08:47:23;5.43;;;4.80;;
11139;SDS011;5624;49.388;11.350;2023-12-20T08:49:49;6.17;;;5.63;;
11139;SDS011;5624;49.388;11.350;2023-12-20T08:52:15;6.07;;;5.57;;
11139;SDS011;5624;49.388;11.350;2023-12-20T08:54:41;5.87;;;5.20;;
11139;SDS011;5624;49.388;11.350;2023-12-20T08:57:06;6.23;;;5.47;;
11139;SDS011;5624;49.388;11.350;2023-12-20T08:59:32;5.70;;;5.10;;
11139;SDS011;5624;49.388;11.350;2023-12-20T09:01:58;5.90;;;5.30;;
11139;SDS011;5624;49.388;11.350;2023-12-20T09:04:24;5.77;;;5.27;;
11139;SDS011;5624;49.388;11.350;2023-12-20T09:06:50;5.20;;;4.70;;
11139;SDS011;5624;49.388;11.350;2023-12-20T09:09:15;5.83;;;5.23;;
11139;SDS011;5624;49.388;11.350;2023-12-20T09:11:41;5.60;;;4.97;;
11139;SDS011;5624;49.388;11.350;2023-12-20T09:14:07;5.93;;;5.33;;
11139;SDS011;5624;49.388;11.350;2023-12-20T09:16:33;5.70;;;5.00;;
11139;SDS011;5624;49.388;11.350;2023-12-20T09:18:58;5.00;;;4.43;;
11139;SDS011;5624;49.388;11.350;2023-12-20T09:21:24;6.37;;;4.60;;
11139;SDS011;5624;49.388;11.350;2023-12-20T09:23:49;4.60;;;3.90;;
11139;SDS011;5624;49.388;11.350;2023-12-20T09:26:15;5.97;;;3.80;;
11139;SDS011;5624;49.388;11.350;2023-12-20T09:28:40;4.23;;;3.57;;
11139;SDS011;5624;49.388;11.350;2023-12-20T09:31:06;4.00;;;3.60;;
11139;SDS011;5624;49.388;11.350;2023-12-20T09:33:32;4.00;;;3.60;;
11139;SDS011;5624;49.388;11.350;2023-12-20T09:35:58;5.77;;;4.30;;
11139;SDS011;5624;49.388;11.350;2023-12-20T09:38:24;7.63;;;4.00;;
11139;SDS011;5624;49.388;11.350;2023-12-20T09:40:49;4.27;;;3.63;;
11139;SDS011;5624;49.388;11.350;2023-12-20T09:43:15;3.97;;;3.57;;
11139;SDS011;5624;49.388;11.350;2023-12-20T09:45:45;4.33;;;3.30;;
11139;SDS011;5624;49.388;11.350;2023-12-20T09:48:12;3.80;;;3.27;;
11139;SDS011;5624;49.388;11.350;2023-12-20T09:50:39;8.30;;;3.73;;
11139;SDS011;5624;49.388;11.350;2023-12-20T09:53:05;4.13;;;3.57;;
11139;SDS011;5624;49.388;11.350;2023-12-20T09:55:35;3.83;;;3.20;;
11139;SDS011;5624;49.388;11.350;2023-12-20T09:58:01;5.87;;;3.00;;
11139;SDS011;5624;49.388;11.350;2023-12-20T10:00:27;3.33;;;2.90;;
11139;SDS011;5624;49.388;11.350;2023-12-20T10:02:57;4.80;;;2.93;;
11139;SDS011;5624;49.388;11.350;2023-12-20T10:05:28;3.50;;;2.40;;
11139;SDS011;5624;49.388;11.350;2023-12-20T10:07:55;4.37;;;2.73;;
11139;SDS011;5624;49.388;11.350;2023-12-20T10:10:20;2.17;;;1.80;;
11139;SDS011;5624;49.388;11.350;2023-12-20T10:13:03;2.63;;;2.27;;
11139;SDS011;5624;49.388;11.350;2023-12-20T10:15:30;4.27;;;2.10;;
11139;SDS011;5624;49.388;11.350;2023-12-20T10:17:56;3.70;;;2.03;;
11139;SDS011;5624;49.388;11.350;2023-12-20T10:20:22;4.03;;;2.33;;
11139;SDS011;5624;49.388;11.350;2023-12-20T10:22:47;3.87;;;1.83;;
11139;SDS011;5624;49.388;11.350;2023-12-20T10:25:14;4.67;;;1.87;;
11139;SDS011;5624;49.388;11.350;2023-12-20T10:27:39;5.60;;;1.80;;
11139;SDS011;5624;49.388;11.350;2023-12-20T10:30:05;4.23;;;1.67;;
11139;SDS011;5624;49.388;11.350;2023-12-20T10:32:31;3.50;;;2.20;;
11139;SDS011;5624;49.388;11.350;2023-12-20T10:34:57;3.57;;;2.23;;
11139;SDS011;5624;49.388;11.350;2023-12-20T10:37:24;5.23;;;1.90;;
11139;SDS011;5624;49.388;11.350;2023-12-20T10:39:50;3.77;;;2.40;;
11139;SDS011;5624;49.388;11.350;2023-12-20T10:42:21;4.27;;;2.00;;
11139;SDS011;5624;49.388;11.350;2023-12-20T10:44:47;3.33;;;1.90;;
11139;SDS011;5624;49.388;11.350;2023-12-20T10:47:14;8.13;;;2.27;;
11139;SDS011;5624;49.388;11.350;2023-12-20T10:49:41;5.20;;;1.87;;
11139;SDS011;5624;49.388;11.350;2023-12-20T10:52:07;4.77;;;2.17;;
11139;SDS011;5624;49.388;11.350;2023-12-20T10:54:34;6.87;;;2.03;;
11139;SDS011;5624;49.388;11.350;2023-12-20T10:57:00;5.10;;;2.50;;
11139;SDS011;5624;49.388;11.350;2023-12-20T10:59:30;4.93;;;2.60;;
11139;SDS011;5624;49.388;11.350;2023-12-20T11:01:59;4.00;;;2.30;;
11139;SDS011;5624;49.388;11.350;2023-12-20T11:04:31;5.67;;;2.53;;
11139;SDS011;5624;49.388;11.350;2023-12-20T11:07:17;3.97;;;1.90;;
11139;SDS011;5624;49.388;11.350;2023-12-20T11:09:51;2.73;;;1.90;;
11139;SDS011;5624;49.388;11.350;2023-12-20T11:15:13;5.43;;;2.43;;
11139;SDS011;5624;49.388;11.350;2023-12-20T11:17:40;6.93;;;2.20;;
11139;SDS011;5624;49.388;11.350;2023-12-20T11:20:09;4.40;;;2.40;;
11139;SDS011;5624;49.388;11.350;2023-12-20T11:22:36;4.77;;;2.10;;
11139;SDS011;5624;49.388;11.350;2023-12-20T11:27:29;5.80;;;2.90;;
11139;SDS011;5624;49.388;11.350;2023-12-20T11:29:56;4.07;;;3.00;;
11139;SDS011;5624;49.388;11.350;2023-12-20T11:34:54;9.67;;;6.53;;
11139;SDS011;5624;49.388;11.350;2023-12-20T11:37:31;9.17;;;5.60;;
11139;SDS011;5624;49.388;11.350;2023-12-20T11:40:06;7.20;;;4.77;;
11139;SDS011;5624;49.388;11.350;2023-12-20T11:42:40;6.67;;;4.13;;
11139;SDS011;5624;49.388;11.350;2023-12-20T11:45:10;8.13;;;4.43;;
11139;SDS011;5624;49.388;11.350;2023-12-20T11:47:40;6.73;;;5.37;;
11139;SDS011;5624;49.388;11.350;2023-12-20T11:50:06;7.90;;;3.50;;
11139;SDS011;5624;49.388;11.350;2023-12-20T11:52:31;7.83;;;2.70;;
11139;SDS011;5624;49.388;11.350;2023-12-20T11:54:57;4.80;;;2.40;;
11139;SDS011;5624;49.388;11.350;2023-12-20T11:57:23;8.23;;;2.93;;
11139;SDS011;5624;49.388;11.350;2023-12-20T11:59:49;4.80;;;2.73;;
11139;SDS011;5624;49.388;11.350;2023-12-20T12:02:15;3.93;;;2.53;;
11139;SDS011;5624;49.388;11.350;2023-12-20T12:04:41;6.07;;;2.93;;
11139;SDS011;5624;49.388;11.350;2023-12-20T12:07:06;5.57;;;3.17;;
11139;SDS011;5624;49.388;11.350;2023-12-20T12:09:32;5.33;;;3.03;;
11139;SDS011;5624;49.388;11.350;2023-12-20T12:11:58;4.17;;;2.60;;
11139;SDS011;5624;49.388;11.350;2023-12-20T12:14:24;7.93;;;4.03;;
11139;SDS011;5624;49.388;11.350;2023-12-20T12:16:50;5.10;;;2.63;;
11139;SDS011;5624;49.388;11.350;2023-12-20T12:19:21;8.13;;;2.97;;
11139;SDS011;5624;49.388;11.350;2023-12-20T12:21:51;6.60;;;2.83;;
11139;SDS011;5624;49.388;11.350;2023-12-20T12:24:29;5.73;;;2.60;;
11139;SDS011;5624;49.388;11.350;2023-12-20T12:26:57;7.70;;;2.80;;
11139;SDS011;5624;49.388;11.350;2023-12-20T12:29:23;3.97;;;2.60;;
11139;SDS011;5624;49.388;11.350;2023-12-20T12:31:49;7.03;;;3.70;;
11139;SDS011;5624;49.388;11.350;2023-12-20T12:34:15;5.47;;;2.97;;
11139;SDS011;5624;49.388;11.350;2023-12-20T12:36:42;4.83;;;2.70;;
11139;SDS011;5624;49.388;11.350;2023-12-20T12:39:08;6.20;;;2.87;;
11139;SDS011;5624;49.388;11.350;2023-12-20T12:41:36;5.70;;;3.07;;
11139;SDS011;5624;49.388;11.350;2023-12-20T12:44:02;8.67;;;3.27;;
11139;SDS011;5624;49.388;11.350;2023-12-20T12:46:28;6.53;;;2.90;;
11139;SDS011;5624;49.388;11.350;2023-12-20T12:48:53;7.20;;;2.80;;
11139;SDS011;5624;49.388;11.350;2023-12-20T12:51:19;4.63;;;2.87;;
11139;SDS011;5624;49.388;11.350;2023-12-20T12:53:44;6.30;;;2.83;;
11139;SDS011;5624;49.388;11.350;2023-12-20T12:56:10;6.00;;;2.80;;
11139;SDS011;5624;49.388;11.350;2023-12-20T12:58:37;4.03;;;2.30;;
11139;SDS011;5624;49.388;11.350;2023-12-20T13:01:04;7.23;;;2.90;;
11139;SDS011;5624;49.388;11.350;2023-12-20T13:03:29;26.30;;;18.17;;
11139;SDS011;5624;49.388;11.350;2023-12-20T13:05:55;15.23;;;11.83;;
11139;SDS011;5624;49.388;11.350;2023-12-20T13:08:21;4.83;;;3.37;;
11139;SDS011;5624;49.388;11.350;2023-12-20T13:10:47;6.17;;;3.10;;
11139;SDS011;5624;49.388;11.350;2023-12-20T13:13:12;4.40;;;3.40;;
11139;SDS011;5624;49.388;11.350;2023-12-20T13:15:38;5.07;;;2.70;;
11139;SDS011;5624;49.388;11.350;2023-12-20T13:18:03;6.77;;;3.47;;
11139;SDS011;5624;49.388;11.350;2023-12-20T13:20:31;6.27;;;3.10;;
11139;SDS011;5624;49.388;11.350;2023-12-20T13:22:56;5.63;;;3.67;;
11139;SDS011;5624;49.388;11.350;2023-12-20T13:25:22;5.13;;;3.17;;
11139;SDS011;5624;49.388;11.350;2023-12-20T13:27:48;6.07;;;3.60;;
11139;SDS011;5624;49.388;11.350;2023-12-20T13:30:15;7.60;;;3.27;;
11139;SDS011;5624;49.388;11.350;2023-12-20T13:32:42;6.23;;;3.33;;
11139;SDS011;5624;49.388;11.350;2023-12-20T13:35:08;5.07;;;3.23;;
11139;SDS011;5624;49.388;11.350;2023-12-20T13:37:33;5.60;;;3.13;;
11139;SDS011;5624;49.388;11.350;2023-12-20T13:39:59;6.27;;;3.17;;
11139;SDS011;5624;49.388;11.350;2023-12-20T13:42:25;4.50;;;2.77;;
11139;SDS011;5624;49.388;11.350;2023-12-20T13:44:52;5.23;;;2.90;;
11139;SDS011;5624;49.388;11.350;2023-12-20T13:47:18;4.87;;;3.30;;
11139;SDS011;5624;49.388;11.350;2023-12-20T13:49:44;6.80;;;3.43;;
11139;SDS011;5624;49.388;11.350;2023-12-20T13:52:10;7.50;;;3.93;;
11139;SDS011;5624;49.388;11.350;2023-12-20T13:54:36;6.57;;;2.90;;
11139;SDS011;5624;49.388;11.350;2023-12-20T13:57:02;6.10;;;3.07;;
11139;SDS011;5624;49.388;11.350;2023-12-20T13:59:28;5.43;;;2.73;;
11139;SDS011;5624;49.388;11.350;2023-12-20T14:01:54;5.37;;;3.07;;
11139;SDS011;5624;49.388;11.350;2023-12-20T14:04:20;7.07;;;5.07;;
11139;SDS011;5624;49.388;11.350;2023-12-20T14:06:46;3.87;;;2.60;;
11139;SDS011;5624;49.388;11.350;2023-12-20T14:09:12;6.47;;;3.70;;
11139;SDS011;5624;49.388;11.350;2023-12-20T14:11:38;4.57;;;2.80;;
11139;SDS011;5624;49.388;11.350;2023-12-20T14:14:06;6.60;;;3.03;;
11139;SDS011;5624;49.388;11.350;2023-12-20T14:16:33;5.50;;;2.70;;
11139;SDS011;5624;49.388;11.350;2023-12-20T14:18:59;5.83;;;2.73;;
11139;SDS011;5624;49.388;11.350;2023-12-20T14:21:25;5.33;;;2.67;;
11139;SDS011;5624;49.388;11.350;2023-12-20T14:23:50;4.10;;;2.83;;
11139;SDS011;5624;49.388;11.350;2023-12-20T14:26:17;4.83;;;2.53;;
11139;SDS011;5624;49.388;11.350;2023-12-20T14:28:42;6.27;;;2.63;;
11139;SDS011;5624;49.388;11.350;2023-12-20T14:31:08;8.17;;;2.77;;
11139;SDS011;5624;49.388;11.350;2023-12-20T14:33:35;4.60;;;3.00;;
11139;SDS011;5624;49.388;11.350;2023-12-20T14:36:03;4.60;;;2.33;;
11139;SDS011;5624;49.388;11.350;2023-12-20T14:38:30;3.97;;;2.57;;
11139;SDS011;5624;49.388;11.350;2023-12-20T14:40:56;4.73;;;2.43;;
11139;SDS011;5624;49.388;11.350;2023-12-20T14:43:22;5.13;;;2.80;;
11139;SDS011;5624;49.388;11.350;2023-12-20T14:45:48;6.03;;;2.43;;
11139;SDS011;5624;49.388;11.350;2023-12-20T14:48:13;6.30;;;2.67;;